Richard Meyer

Olheiro-Chefe - Werder Bremen
19 Fev 2027
Sexta-feira
Processo

Personalidade

Adaptabilidade (15) Ambição (5) Controvérsia (17) Lealdade (9) Pressão (6) Profissionalismo (11) Espírito Esportivo (10) Temperamento (18)

Perfil

Estilo de Treinamento Democrático
Licença Continental C
Determinação 13
Gestão de Pessoas 7
Motivação 14
Disciplina 14
Satisfação no Trabalho
50%
Fadiga
0%
Função Olheiro-Chefe
Salário 72.2K p/s
Contrato 14.03.2027

Desempenho

Comportamento Normal
Eficácia do Treinamento
21%
Desenvolvimento do Jogador
35%
Prevenção de Lesões
35%
Implementação Tática
50%

Eventos Recentes

Negociação de contrato iniciada agora
Negociação de contrato iniciada agora
Negociação de contrato iniciada 7d atrás
Negociação de contrato iniciada 7d atrás
Negociação de contrato iniciada 7d atrás
Negociação de contrato iniciada 7d atrás
Negociação de contrato iniciada 7d atrás
Negociação de contrato iniciada 7d atrás

Monitorando agora

70
Jogador Clube Status Habilidade Confiança Observado Última observação Último voto
Kaio Jorge Cruzeiro Ativo 145 / 144 40% 1 30.01.2027 -
Lee Tae-Suk Austria Wien Ativo 130 / 129 40% 1 30.01.2027 -
Mattia Zanotti Lugano Ativo 135 / 127 40% 1 30.01.2027 -
Frans Krätzig Red Bull Salzburg Ativo 118 / 128 40% 2 29.01.2027 -
Fidel Ambríz Monterrey Ativo 121 / 125 40% 1 29.01.2027 -
Alemão Rayo Vallecano Ativo 128 / 128 40% 2 27.01.2027 -
Kasper Høgh Bloemfontein Celtic Ativo 126 / 125 40% 2 27.01.2027 -
Diego Rossi Monterrey Ativo 137 / 133 40% 3 26.01.2027 -
Tyrese Campbell Sheffield United Ativo 124 / 120 40% 1 26.01.2027 -
Saël Kumbedi VfL Wolfsburg Ativo 127 / 140 58% 1 25.01.2027 Aprovar
Chupete Málaga Ativo 117 / 128 40% 4 24.01.2027 -
Ivan Toney Al-Ahli Ativo 142 / 154 40% 3 23.01.2027 -
Bojan Kovačević Cádiz Ativo 131 / 139 40% 2 23.01.2027 -
Arthur Cabral Botafogo Ativo 122 / 134 40% 1 23.01.2027 -
Metinho Basel Ativo 124 / 129 40% 1 23.01.2027 -
Chris Ramos Botafogo Ativo 137 / 130 40% 2 21.01.2027 -
Randy Nteka Rayo Vallecano Ativo 134 / 127 40% 1 21.01.2027 -
Taisei Miyashiro Groningen Ativo 127 / 129 40% 1 20.01.2027 -
Gorka Guruzeta Athletic Bilbao Ativo 145 / 141 40% 1 20.01.2027 -
Christian Kouamé Aris Thessaloniki Ativo 135 / 124 40% 1 19.01.2027 -
Juninho Pumas UNAM Ativo 130 / 122 40% 1 17.01.2027 -
Ashkan Dejagah Padideh Ativo 149 / 137 40% 1 17.01.2027 -
Felipe Augusto Zenit Ativo 129 / 124 40% 2 16.01.2027 -
Ben Nelson Leicester City Ativo 137 / 138 40% 1 16.01.2027 -
Paulinho Palmeiras Ativo 146 / 141 40% 1 15.01.2027 -
Danylo Sikan Anderlecht Ativo 139 / 124 40% 1 13.01.2027 -
Ismael Díaz Leon Ativo 129 / 132 40% 1 13.01.2027 -
Derry Scherhant SC Freiburg Ativo 117 / 132 40% 1 12.01.2027 -
Jackson Muleka Konyaspor Ativo 132 / 136 40% 1 11.01.2027 -
Enes Ünal Getafe Ativo 140 / 143 40% 1 09.01.2027 -
Yorbe Vertessen Red Bull Salzburg Ativo 121 / 122 40% 1 09.01.2027 -
Rodrigo Huescas FC Copenhagen Ativo 145 / 135 40% 1 09.01.2027 -
Agustín Giay Palmeiras Ativo 133 / 137 40% 1 09.01.2027 -
Mamadou Coulibaly Al Jazira Ativo 141 / 117 40% 1 08.01.2027 -
Ilyas Ansah Union Berlin Ativo 126 / 133 40% 1 06.01.2027 -
Urko Izeta Cádiz Ativo 133 / 131 40% 1 03.01.2027 -
Joel Chima Fujita St. Pauli Ativo 140 / 126 40% 1 02.01.2027 -
Ngal'Ayel Mukau LOSC Lille Rejeitado 128 / 144 40% 1 31.08.2026 Mais informações
Everardo López Toluca Ativo 116 / 122 40% 1 31.08.2026 Mais informações
Ignacio Perruzzi San Lorenzo Ativo 113 / 131 40% 1 31.08.2026 Mais informações
Alex Valera FCSB Ativo 127 / 134 40% 1 29.08.2026 -
Shuto Machino Borussia Mönchengladbach Ativo 130 / 122 40% 1 29.08.2026 -
Lautaro Vargas Unión de Santa Fe Ativo 112 / 132 40% 1 29.08.2026 -
Diber Cambindo Leon Ativo 121 / 132 40% 2 27.08.2026 -
Sam Surridge Nashville SC Ativo 130 / 126 40% 2 26.08.2026 -
Uriel Antuna Pumas UNAM Ativo 130 / 131 40% 1 25.08.2026 -
Hwang Hee-Chan Wolverhampton Ativo 138 / 141 40% 1 25.08.2026 -
Jorge Pascual Granada Ativo 125 / 130 40% 2 24.08.2026 -
Oscar Højlund Eintracht Frankfurt Ativo 123 / 134 40% 2 24.08.2026 -
Christopher Trimmel Union Berlin Ativo 125 / 136 58% 1 24.08.2026 Aprovar
Ollie Scarles West Ham United Ativo 125 / 135 40% 1 24.08.2026 -
Diogo Guzmán Montevideo City Torque Ativo 102 / 114 40% 1 24.08.2026 -
Mateus Mané Liverpool Ativo 117 / 142 40% 1 24.08.2026 -
Facundo Di Biasi Gimnasia La Plata Ativo 120 / 127 40% 1 21.08.2026 -
Jon Karrikaburu Burgos Ativo 135 / 139 40% 1 19.08.2026 -
Ezechiel Banzuzi RB Leipzig Ativo 123 / 125 40% 2 17.08.2026 Mais informações
Jair Nottingham Forest Ativo 117 / 138 40% 2 17.08.2026 -
Luca Orellano Monterrey Ativo 126 / 131 40% 2 17.08.2026 -
Tom Rothe Union Berlin Ativo 133 / 126 40% 1 17.08.2026 -
Joe Gelhardt Hull City Ativo 120 / 135 40% 1 14.08.2026 -
Maurits Kjærgaard Red Bull Salzburg Ativo 120 / 121 40% 1 13.08.2026 -
Lucas Boyé Alavés Ativo 128 / 132 40% 1 13.08.2026 -
Luka Mikulić Grasshopper Ativo 97 / 107 40% 1 13.08.2026 -
John Mellberg Red Bull Salzburg Ativo 108 / 124 40% 1 13.08.2026 -
Marvin Akahomen Basel Ativo 95 / 114 40% 1 12.08.2026 -
Vladyslav Vanat Girona Ativo 121 / 129 40% 1 09.08.2026 -
Liel Abada Charlotte Football Club Ativo 124 / 138 40% 1 07.08.2026 -
George Hirst Stoke City Ativo 123 / 123 40% 1 07.08.2026 -
Adama Dramé Wolfsberger AC Ativo 99 / 106 40% 1 04.08.2026 -
Silas Mainz 05 Ativo 131 / 134 40% 1 02.08.2026 -